createdAt,value
2023-04-07T00:02:16.760Z,81.41
2023-04-07T00:05:20.103Z,81.09
2023-04-07T00:08:22.965Z,81.75
2023-04-07T00:11:26.488Z,81.82
2023-04-07T00:14:30.179Z,81.59
2023-04-07T00:17:33.399Z,81.85
2023-04-07T00:20:36.838Z,82.11
2023-04-07T00:23:39.774Z,82.49
2023-04-07T00:26:42.739Z,82.00
2023-04-07T00:29:46.965Z,81.85
2023-04-07T00:32:51.567Z,82.17
2023-04-07T00:35:54.873Z,82.78
2023-04-07T00:38:57.886Z,82.79
2023-04-07T00:42:01.569Z,83.38
2023-04-07T00:45:04.932Z,82.98
2023-04-07T00:48:08.291Z,82.67
2023-04-07T00:51:11.577Z,82.83
2023-04-07T00:54:15.534Z,82.82
2023-04-07T00:57:18.497Z,82.96
2023-04-07T01:00:23.317Z,83.81
2023-04-07T01:03:34.234Z,83.96
2023-04-07T01:06:40.775Z,83.19
2023-04-07T01:09:51.809Z,83.13
2023-04-07T01:13:08.738Z,82.39
2023-04-07T01:16:14.129Z,83.43
2023-04-07T01:19:30.761Z,83.30
2023-04-07T01:22:43.371Z,83.24
2023-04-07T01:26:10.053Z,83.44
2023-04-07T01:29:25.394Z,83.35
2023-04-07T01:32:30.223Z,83.69
2023-04-07T01:35:35.475Z,83.36
2023-04-07T01:38:39.164Z,83.39
2023-04-07T01:41:42.391Z,82.89
2023-04-07T01:44:46.992Z,83.37
2023-04-07T01:47:50.491Z,82.97
2023-04-07T01:50:55.420Z,83.18
2023-04-07T01:54:00.980Z,83.43
2023-04-07T01:57:04.358Z,83.10
2023-04-07T02:00:08.777Z,83.53
2023-04-07T02:03:24.669Z,83.33
2023-04-07T02:06:33.843Z,83.26
2023-04-07T02:09:39.275Z,82.86
2023-04-07T02:12:42.501Z,82.79
2023-04-07T02:15:46.022Z,83.02
2023-04-07T02:18:49.608Z,83.01
2023-04-07T02:21:53.099Z,82.50
2023-04-07T02:24:57.617Z,82.98
2023-04-07T02:28:03.301Z,82.14
2023-04-07T02:31:06.254Z,82.06
2023-04-07T02:34:10.180Z,81.80
2023-04-07T02:37:15.516Z,82.20
2023-04-07T02:40:18.779Z,82.48
2023-04-07T02:43:21.792Z,81.73
2023-04-07T02:46:27.393Z,81.61
2023-04-07T02:49:30.329Z,81.53
2023-04-07T02:52:33.592Z,81.82
2023-04-07T02:55:37.611Z,81.46
2023-04-07T02:58:41.109Z,81.18
2023-04-07T03:01:44.331Z,81.16
2023-04-07T03:04:48.356Z,81.71
2023-04-07T03:07:52.180Z,82.12
2023-04-07T03:10:55.579Z,82.14
2023-04-07T03:14:00.035Z,81.43
2023-04-07T03:17:04.645Z,81.72
2023-04-07T03:20:08.605Z,82.03
2023-04-07T03:23:13.800Z,82.51
2023-04-07T03:26:18.739Z,82.23
2023-04-07T03:29:22.094Z,82.04
2023-04-07T03:32:27.565Z,81.92
2023-04-07T03:35:32.410Z,81.86
2023-04-07T03:38:35.677Z,82.50
2023-04-07T03:41:39.155Z,82.20
2023-04-07T03:44:42.737Z,82.56
2023-04-07T03:47:46.504Z,82.20
2023-04-07T03:50:49.653Z,82.23
2023-04-07T03:53:53.533Z,82.20
2023-04-07T03:57:00.004Z,81.03
2023-04-07T04:00:04.022Z,81.57
2023-04-07T04:03:19.196Z,83.09
2023-04-07T04:06:23.485Z,82.70
2023-04-07T04:09:26.998Z,82.58
2023-04-07T04:12:30.341Z,83.68
2023-04-07T04:15:34.644Z,84.46
2023-04-07T04:18:39.205Z,84.91
2023-04-07T04:21:42.455Z,85.41
2023-04-07T04:24:46.278Z,86.70
2023-04-07T04:27:49.696Z,87.27
2023-04-07T04:30:53.219Z,88.14
2023-04-07T04:33:56.357Z,88.50
2023-04-07T04:37:00.175Z,88.84
2023-04-07T04:40:04.277Z,89.42
2023-04-07T04:43:09.740Z,89.03
2023-04-07T04:46:14.334Z,88.49
2023-04-07T04:49:19.906Z,88.30
2023-04-07T04:52:23.143Z,88.22
2023-04-07T04:55:27.513Z,88.39
2023-04-07T04:58:32.491Z,88.60
2023-04-07T05:01:35.758Z,88.87
2023-04-07T05:04:39.061Z,89.07
2023-04-07T05:07:43.318Z,89.12
2023-04-07T05:10:47.777Z,87.73
2023-04-07T05:13:52.602Z,87.76
2023-04-07T05:16:55.757Z,88.33
2023-04-07T05:19:59.340Z,88.67
2023-04-07T05:23:03.235Z,88.44
2023-04-07T05:26:07.105Z,88.44
2023-04-07T05:29:12.457Z,88.46
2023-04-07T05:32:15.768Z,88.48
2023-04-07T05:35:19.015Z,88.44
2023-04-07T05:38:24.596Z,89.46
2023-04-07T05:41:29.891Z,88.70
2023-04-07T05:44:33.514Z,87.95
2023-04-07T05:47:36.691Z,90.10
2023-04-07T05:50:41.763Z,89.44
2023-04-07T05:53:44.846Z,87.61
2023-04-07T05:56:49.000Z,86.10
2023-04-07T05:59:52.530Z,86.03
2023-04-07T06:02:56.347Z,85.31
2023-04-07T06:06:00.919Z,86.35
2023-04-07T06:09:04.595Z,84.96
2023-04-07T06:12:09.437Z,84.93
2023-04-07T06:15:12.629Z,83.95
2023-04-07T06:18:15.986Z,85.48
2023-04-07T06:21:18.927Z,85.87
2023-04-07T06:24:25.461Z,86.26
2023-04-07T06:27:28.491Z,85.74
2023-04-07T06:30:32.178Z,85.68
2023-04-07T06:33:35.511Z,84.47
2023-04-07T06:36:38.769Z,85.08
2023-04-07T06:39:41.788Z,84.05
2023-04-07T06:42:46.274Z,84.38
2023-04-07T06:45:52.447Z,83.63
2023-04-07T06:48:55.684Z,83.05
2023-04-07T06:51:59.462Z,83.79
2023-04-07T06:55:02.813Z,82.90
2023-04-07T06:58:05.940Z,81.94
2023-04-07T07:01:09.443Z,83.05
2023-04-07T07:04:12.536Z,81.24
2023-04-07T07:07:16.111Z,81.40
2023-04-07T07:10:20.726Z,81.05
2023-04-07T07:13:26.645Z,80.17
2023-04-07T07:16:29.490Z,80.36
2023-04-07T07:19:32.693Z,79.55
2023-04-07T07:22:35.984Z,81.09
2023-04-07T07:25:39.356Z,79.08
2023-04-07T07:28:42.314Z,79.81
2023-04-07T07:31:45.986Z,80.02
2023-04-07T07:34:48.851Z,80.35
2023-04-07T07:37:53.020Z,80.59
2023-04-07T07:40:56.092Z,79.20
2023-04-07T07:43:59.302Z,78.30
2023-04-07T07:47:02.263Z,78.05
2023-04-07T07:50:05.954Z,78.31
2023-04-07T07:53:08.912Z,79.32
2023-04-07T07:56:12.124Z,79.53
2023-04-07T07:59:16.638Z,80.33
2023-04-07T08:02:20.975Z,79.23
2023-04-07T08:05:24.391Z,79.21
2023-04-07T08:08:27.268Z,80.85
2023-04-07T08:11:30.423Z,79.28
2023-04-07T08:14:33.924Z,80.96
2023-04-07T08:17:37.182Z,80.46
2023-04-07T08:20:40.924Z,79.28
2023-04-07T08:23:44.176Z,79.48
2023-04-07T08:26:47.276Z,80.46
2023-04-07T08:30:00.609Z,80.62
2023-04-07T08:33:04.335Z,82.06
2023-04-07T08:36:07.912Z,81.47
2023-04-07T08:39:10.966Z,84.29
2023-04-07T08:42:14.444Z,83.14
2023-04-07T08:45:19.424Z,82.28
2023-04-07T08:48:27.272Z,86.61
2023-04-07T08:51:33.307Z,84.75
2023-04-07T08:54:36.903Z,80.29
2023-04-07T08:57:40.258Z,86.09
2023-04-07T09:00:49.801Z,84.45
2023-04-07T09:03:52.997Z,84.06
2023-04-07T09:06:57.412Z,81.46
2023-04-07T09:10:01.738Z,83.10
2023-04-07T09:13:04.986Z,81.52
2023-04-07T09:16:08.157Z,83.61
2023-04-07T09:19:11.517Z,82.50
2023-04-07T09:22:14.951Z,82.65
2023-04-07T09:25:20.037Z,84.40
2023-04-07T09:28:23.120Z,83.72
2023-04-07T09:31:50.350Z,81.19
2023-04-07T09:34:59.306Z,83.42
2023-04-07T09:38:07.732Z,80.49
2023-04-07T09:41:11.683Z,83.14
2023-04-07T09:44:15.058Z,85.75
2023-04-07T09:47:18.153Z,82.46
2023-04-07T09:50:35.441Z,82.71
2023-04-07T09:53:50.103Z,82.32
2023-04-07T09:56:53.762Z,80.04
2023-04-07T09:59:57.306Z,81.02
2023-04-07T10:03:00.942Z,78.15
2023-04-07T10:06:06.501Z,79.90
2023-04-07T10:09:10.654Z,77.45
2023-04-07T10:12:14.673Z,76.14
2023-04-07T10:15:17.727Z,78.28
2023-04-07T10:18:21.637Z,76.77
2023-04-07T10:21:26.037Z,74.98
2023-04-07T10:24:47.548Z,74.92
2023-04-07T10:27:54.002Z,75.25
2023-04-07T10:30:58.305Z,75.82
2023-04-07T10:34:02.855Z,77.04
2023-04-07T10:37:13.829Z,77.81
2023-04-07T10:40:19.577Z,75.44
2023-04-07T10:43:44.332Z,77.05
2023-04-07T10:46:48.838Z,76.31
2023-04-07T10:50:20.612Z,74.16
2023-04-07T10:53:24.348Z,72.14
2023-04-07T10:56:28.144Z,70.18
2023-04-07T10:59:32.295Z,71.42
2023-04-07T11:02:36.044Z,72.41
2023-04-07T11:05:42.514Z,72.76
2023-04-07T11:08:49.322Z,73.88
2023-04-07T11:11:53.616Z,76.39
2023-04-07T11:14:57.483Z,76.57
2023-04-07T11:18:23.478Z,74.15
2023-04-07T11:21:26.628Z,75.83
2023-04-07T11:24:39.446Z,77.13
2023-04-07T11:27:44.883Z,74.85
2023-04-07T11:30:54.143Z,76.03
2023-04-07T11:34:00.032Z,75.07
2023-04-07T11:37:26.304Z,77.60
2023-04-07T11:40:37.157Z,75.33
2023-04-07T11:43:45.406Z,75.04
2023-04-07T11:46:59.986Z,77.32
2023-04-07T11:50:03.052Z,75.36
2023-04-07T11:53:06.280Z,73.46
2023-04-07T11:56:16.576Z,71.43
2023-04-07T11:59:25.022Z,73.53
2023-04-07T12:02:34.604Z,72.66
2023-04-07T12:05:45.183Z,73.34
2023-04-07T12:08:48.204Z,75.88
2023-04-07T12:11:51.573Z,74.29
2023-04-07T12:14:54.987Z,75.05
2023-04-07T12:17:58.180Z,75.46
2023-04-07T12:21:01.642Z,74.71
2023-04-07T12:24:04.929Z,74.36
2023-04-07T12:27:07.949Z,77.01
2023-04-07T12:30:13.225Z,76.04
2023-04-07T12:33:16.991Z,75.47
2023-04-07T12:36:20.257Z,74.44
2023-04-07T12:39:23.626Z,74.32
2023-04-07T12:42:27.348Z,74.77
2023-04-07T12:45:31.372Z,74.81
2023-04-07T12:48:34.824Z,75.06
2023-04-07T12:51:40.115Z,75.50
2023-04-07T12:54:45.093Z,75.31
2023-04-07T12:57:48.475Z,74.75
2023-04-07T13:00:52.383Z,75.34
2023-04-07T13:03:56.271Z,74.31
2023-04-07T13:07:01.075Z,74.06
2023-04-07T13:10:06.242Z,73.44
2023-04-07T13:13:09.376Z,72.69
2023-04-07T13:16:12.433Z,71.68
2023-04-07T13:19:16.205Z,71.65
2023-04-07T13:22:22.140Z,72.68
2023-04-07T13:25:27.543Z,72.59
2023-04-07T13:28:30.554Z,73.29
2023-04-07T13:31:33.769Z,72.41
2023-04-07T13:34:38.276Z,71.88
2023-04-07T13:37:41.499Z,72.03
2023-04-07T13:40:45.374Z,72.49
2023-04-07T13:43:49.145Z,72.29
2023-04-07T13:46:52.779Z,72.09
2023-04-07T13:49:56.178Z,72.71
2023-04-07T13:52:59.069Z,72.71
2023-04-07T13:56:03.684Z,73.95
2023-04-07T13:59:07.818Z,74.77
2023-04-07T14:02:11.533Z,75.43
2023-04-07T14:05:14.731Z,73.05
2023-04-07T14:08:19.163Z,72.92
2023-04-07T14:11:22.800Z,73.31
2023-04-07T14:14:25.743Z,74.05
2023-04-07T14:17:29.047Z,72.57
2023-04-07T14:20:32.107Z,72.26
2023-04-07T14:23:37.633Z,72.79
2023-04-07T14:26:40.797Z,71.81
2023-04-07T14:29:44.003Z,71.63
2023-04-07T14:32:47.078Z,72.07
2023-04-07T14:35:50.345Z,73.11
2023-04-07T14:38:54.342Z,72.91
2023-04-07T14:41:57.606Z,73.50
2023-04-07T14:45:00.645Z,75.26
2023-04-07T14:48:04.010Z,75.76
2023-04-07T14:51:12.983Z,75.30
2023-04-07T14:54:16.172Z,74.74
2023-04-07T14:57:19.786Z,75.81
2023-04-07T15:00:25.434Z,76.29
2023-04-07T15:03:29.120Z,76.65
2023-04-07T15:06:34.064Z,75.17
2023-04-07T15:09:36.904Z,75.54
2023-04-07T15:12:40.981Z,75.57
2023-04-07T15:15:43.860Z,76.29
2023-04-07T15:18:48.388Z,76.08
2023-04-07T15:21:51.284Z,75.97
2023-04-07T15:24:54.429Z,76.18
2023-04-07T15:27:57.395Z,76.08
2023-04-07T15:31:01.399Z,77.28
2023-04-07T15:34:04.542Z,76.25
2023-04-07T15:37:08.597Z,76.08
2023-04-07T15:40:11.897Z,76.24
2023-04-07T15:43:15.079Z,75.84
2023-04-07T15:46:17.943Z,76.18
2023-04-07T15:49:24.311Z,76.20
2023-04-07T15:52:29.247Z,76.43
2023-04-07T15:55:34.939Z,76.71
2023-04-07T15:58:38.997Z,75.39
2023-04-07T16:01:42.458Z,76.08
2023-04-07T16:04:47.615Z,76.41
2023-04-07T16:07:51.542Z,76.47
2023-04-07T16:10:54.671Z,76.84
2023-04-07T16:13:57.610Z,77.50
2023-04-07T16:17:00.980Z,77.11
2023-04-07T16:20:04.737Z,76.94
2023-04-07T16:23:08.082Z,77.13
2023-04-07T16:26:11.187Z,77.89
2023-04-07T16:29:14.384Z,77.82
2023-04-07T16:32:17.277Z,79.37
2023-04-07T16:35:20.654Z,80.51
2023-04-07T16:38:24.242Z,81.42
2023-04-07T16:41:27.603Z,83.02
2023-04-07T16:44:32.724Z,84.21
2023-04-07T16:47:36.908Z,86.50
2023-04-07T16:50:44.206Z,87.62
2023-04-07T16:53:48.155Z,89.00
2023-04-07T16:56:51.992Z,90.37
2023-04-07T16:59:55.339Z,90.26
2023-04-07T17:02:58.377Z,91.32
2023-04-07T17:06:05.644Z,90.89
2023-04-07T17:09:08.594Z,91.42
2023-04-07T17:12:13.079Z,91.39
2023-04-07T17:15:16.204Z,91.60
2023-04-07T17:18:20.846Z,92.29
2023-04-07T17:21:23.713Z,91.91
2023-04-07T17:24:26.881Z,91.72
2023-04-07T17:27:29.866Z,91.87
2023-04-07T17:30:33.238Z,92.15
2023-04-07T17:33:36.239Z,91.74
2023-04-07T17:36:39.450Z,92.32
2023-04-07T17:39:42.535Z,92.58
2023-04-07T17:42:45.985Z,93.08
2023-04-07T17:45:48.915Z,92.76
2023-04-07T17:48:52.401Z,92.86
2023-04-07T17:51:56.654Z,92.96
2023-04-07T17:55:01.173Z,93.74
2023-04-07T17:58:04.049Z,94.71
2023-04-07T18:01:12.572Z,96.09
2023-04-07T18:04:17.915Z,97.93
2023-04-07T18:07:21.379Z,98.59
2023-04-07T18:10:26.111Z,98.36
2023-04-07T18:13:30.480Z,99.09
2023-04-07T18:16:34.279Z,99.01
2023-04-07T18:19:37.584Z,99.72
2023-04-07T18:22:41.047Z,100.00
2023-04-07T18:25:44.061Z,100.00
2023-04-07T18:28:47.369Z,100.00
2023-04-07T18:31:50.608Z,100.00
2023-04-07T18:34:54.961Z,100.00
2023-04-07T18:37:59.216Z,100.00
2023-04-07T18:41:02.618Z,100.00
2023-04-07T18:44:05.652Z,100.00
2023-04-07T18:47:08.891Z,100.00
2023-04-07T18:50:12.191Z,100.00
2023-04-07T18:53:17.100Z,100.00
2023-04-07T18:56:22.742Z,100.00
2023-04-07T18:59:29.239Z,100.00
2023-04-07T19:02:32.229Z,100.00
2023-04-07T19:05:37.545Z,100.00
2023-04-07T19:08:41.141Z,100.00
2023-04-07T19:11:44.964Z,100.00
2023-04-07T19:14:48.045Z,100.00
2023-04-07T19:17:52.861Z,100.00
2023-04-07T19:20:56.143Z,100.00
2023-04-07T19:23:59.940Z,100.00
2023-04-07T19:27:03.393Z,100.00
2023-04-07T19:30:07.563Z,100.00
2023-04-07T19:33:11.925Z,100.00
2023-04-07T19:36:15.517Z,100.00
2023-04-07T19:39:18.696Z,100.00
2023-04-07T19:42:22.051Z,100.00
2023-04-07T19:45:25.734Z,100.00
2023-04-07T19:48:29.836Z,100.00
2023-04-07T19:51:33.251Z,100.00
2023-04-07T19:54:37.009Z,100.00
2023-04-07T19:57:43.284Z,100.00
2023-04-07T20:00:49.819Z,100.00
2023-04-07T20:03:53.181Z,100.00
2023-04-07T20:06:56.239Z,100.00
2023-04-07T20:10:00.155Z,100.00
2023-04-07T20:13:04.565Z,100.00
2023-04-07T20:16:09.196Z,100.00
2023-04-07T20:19:12.291Z,100.00
2023-04-07T20:22:15.848Z,100.00
2023-04-07T20:25:18.939Z,100.00
2023-04-07T20:28:22.446Z,100.00
2023-04-07T20:31:25.643Z,100.00
2023-04-07T20:34:29.276Z,100.00
2023-04-07T20:37:32.223Z,100.00
2023-04-07T20:40:37.053Z,100.00
2023-04-07T20:43:40.172Z,100.00
2023-04-07T20:46:44.403Z,100.00
2023-04-07T20:49:47.384Z,100.00
2023-04-07T20:52:50.636Z,100.00
2023-04-07T20:55:53.674Z,100.00
2023-04-07T20:58:56.847Z,100.00
2023-04-07T21:01:59.975Z,100.00
2023-04-07T21:05:04.216Z,100.00
2023-04-07T21:08:08.578Z,100.00
2023-04-07T21:11:11.756Z,100.00
2023-04-07T21:14:14.710Z,100.00
2023-04-07T21:17:18.023Z,100.00
2023-04-07T21:20:20.876Z,100.00
2023-04-07T21:23:24.087Z,100.00
2023-04-07T21:26:27.389Z,100.00
2023-04-07T21:29:33.263Z,100.00
2023-04-07T21:32:36.773Z,100.00
2023-04-07T21:35:40.572Z,100.00
2023-04-07T21:38:43.661Z,100.00
2023-04-07T21:41:46.736Z,100.00
2023-04-07T21:44:50.067Z,100.00
2023-04-07T21:47:53.320Z,100.00
2023-04-07T21:50:56.700Z,100.00
2023-04-07T21:53:59.885Z,100.00
2023-04-07T21:57:02.839Z,100.00
2023-04-07T22:00:07.472Z,100.00
2023-04-07T22:03:17.548Z,100.00
2023-04-07T22:06:20.943Z,100.00
2023-04-07T22:09:24.334Z,100.00
2023-04-07T22:12:27.792Z,100.00
2023-04-07T22:15:30.869Z,100.00
2023-04-07T22:18:34.039Z,100.00
2023-04-07T22:21:36.933Z,100.00
2023-04-07T22:24:40.379Z,100.00
2023-04-07T22:27:43.331Z,100.00
2023-04-07T22:30:46.563Z,100.00
2023-04-07T22:33:49.796Z,100.00
2023-04-07T22:36:54.368Z,100.00
2023-04-07T22:39:57.235Z,100.00
2023-04-07T22:43:02.280Z,100.00
2023-04-07T22:46:05.280Z,100.00
2023-04-07T22:49:08.566Z,100.00
2023-04-07T22:52:11.479Z,100.00
2023-04-07T22:55:14.737Z,100.00
2023-04-07T22:58:17.747Z,100.00
2023-04-07T23:01:21.137Z,100.00
2023-04-07T23:04:24.894Z,100.00
2023-04-07T23:07:28.066Z,100.00
2023-04-07T23:10:32.221Z,100.00
2023-04-07T23:13:35.404Z,100.00
2023-04-07T23:16:38.369Z,100.00
2023-04-07T23:19:42.748Z,100.00
2023-04-07T23:22:45.824Z,100.00
2023-04-07T23:25:49.738Z,100.00
2023-04-07T23:28:52.693Z,100.00
2023-04-07T23:31:56.036Z,100.00
2023-04-07T23:34:59.005Z,100.00
2023-04-07T23:38:02.521Z,100.00
2023-04-07T23:41:05.439Z,100.00
2023-04-07T23:44:08.911Z,100.00
2023-04-07T23:47:11.796Z,100.00
2023-04-07T23:50:15.032Z,100.00
2023-04-07T23:53:18.352Z,100.00
2023-04-07T23:56:21.720Z,100.00
2023-04-07T23:59:25.070Z,100.00
